< Typhoon 196531 1965 Season Typhoon 196601 >
Typhoon 196532 (FAYE)
General InformationTrack Information on Google Maps || Disaster Info.ResourceGoogle EarthGE AnimationAtom FeedGeoJSON
Detalied Best Track (Time Zone = UTC)
Year Month Day Hour Lat. Long. Pressure (hPa) Wind (kt) Class Image Chart
1965 11 13 00 9.0 168.7 1009 0 2 -- Chart
1965 11 13 06 8.7 168.5 1006 0 2 -- Chart
1965 11 13 12 8.5 168.4 1006 0 2 -- Chart
1965 11 13 18 8.2 168.2 1006 0 2 -- Chart
1965 11 14 00 8.0 168.0 1002 0 2 -- Chart
1965 11 14 06 8.2 167.8 1000 0 9 -- Chart
1965 11 14 12 8.5 167.5 1000 0 9 -- Chart
1965 11 14 18 8.8 167.2 1000 0 9 -- Chart
1965 11 15 00 9.1 167.2 1000 0 9 -- Chart
1965 11 15 06 8.9 167.5 1002 0 9 -- Chart
1965 11 15 12 8.5 166.9 1000 0 9 -- Chart
1965 11 15 18 8.6 166.1 1002 0 9 -- Chart
1965 11 16 00 8.8 165.3 1002 0 9 -- Chart
1965 11 16 06 8.9 164.5 1002 0 9 -- Chart
1965 11 16 12 8.9 163.5 1002 0 9 -- Chart
1965 11 16 18 8.9 162.5 1002 0 9 -- Chart
1965 11 17 00 9.1 161.1 1002 0 9 -- Chart
1965 11 17 06 9.7 159.9 1002 0 9 -- Chart
1965 11 17 12 9.6 158.7 1002 0 9 -- Chart
1965 11 17 18 9.5 157.5 1000 0 9 -- Chart
1965 11 18 00 9.3 156.5 1000 0 9 -- Chart
1965 11 18 06 9.5 155.4 1000 0 9 -- Chart
1965 11 18 12 9.7 154.2 1000 0 9 -- Chart
1965 11 18 18 10.0 153.1 1000 0 9 -- Chart
1965 11 19 00 10.1 152.0 1000 0 9 -- Chart
1965 11 19 06 10.1 150.9 1000 0 9 -- Chart
1965 11 19 12 9.7 149.7 1000 0 9 -- Chart
1965 11 19 18 9.5 148.5 1000 0 9 -- Chart
1965 11 20 00 9.6 147.3 1000 0 9 -- Chart
1965 11 20 06 10.1 146.0 998 0 9 -- Chart
1965 11 20 12 10.6 144.5 996 0 9 -- Chart
1965 11 20 18 10.5 143.0 994 0 9 -- Chart
1965 11 21 00 10.5 141.4 986 0 9 -- Chart
1965 11 21 06 11.2 139.9 980 0 9 -- Chart
1965 11 21 12 11.8 138.2 970 0 9 -- Chart
1965 11 21 18 12.0 136.8 960 0 9 -- Chart
1965 11 22 00 12.0 135.1 950 0 9 -- Chart
1965 11 22 06 12.6 133.6 950 0 9 -- Chart
1965 11 22 12 13.0 132.0 945 0 9 -- Chart
1965 11 22 18 13.8 130.9 945 0 9 -- Chart
1965 11 23 00 14.5 129.9 940 0 9 -- Chart
1965 11 23 06 15.0 128.7 935 0 9 -- Chart
1965 11 23 12 16.1 127.9 935 0 9 -- Chart
1965 11 23 18 17.2 127.2 935 0 9 -- Chart
1965 11 24 00 18.1 126.9 930 0 9 -- Chart
1965 11 24 06 19.9 127.0 930 0 9 -- Chart
1965 11 24 12 21.5 128.1 935 0 9 -- Chart
1965 11 24 18 23.5 129.5 940 0 9 -- Chart
1965 11 25 00 25.5 131.4 950 0 9 -- Chart
1965 11 25 06 28.0 134.1 955 0 9 -- Chart
1965 11 25 12 30.5 138.0 960 0 9 -- Chart
1965 11 25 18 33.8 143.1 970 0 9 -- Chart
1965 11 26 00 37.5 149.5 975 0 9 -- Chart
1965 11 26 06 40.5 155.5 976 0 6 -- Chart
1965 11 26 12 44.0 161.5 972 0 6 -- Chart
1965 11 26 18 46.0 167.5 976 0 6 -- Chart
1965 11 27 00 48.0 175.0 986 0 6 -- Chart
1965 11 27 06 49.0 186.0 986 0 6 -- Chart
Japan Meteorological Agency Best Track Data | Correction Date : 1991-07-16
< Typhoon 196531 1965 Season Typhoon 196601 >

Help